createdAt,value
2023-11-07T00:01:23.824Z,87.65
2023-11-07T00:03:50.344Z,89.10
2023-11-07T00:06:16.846Z,88.57
2023-11-07T00:08:43.332Z,92.97
2023-11-07T00:11:10.130Z,91.73
2023-11-07T00:13:36.486Z,91.85
2023-11-07T00:16:02.838Z,92.03
2023-11-07T00:18:29.319Z,92.82
2023-11-07T00:20:57.148Z,101.72
2023-11-07T00:23:23.952Z,110.13
2023-11-07T00:25:54.142Z,122.28
2023-11-07T00:28:21.090Z,111.65
2023-11-07T00:30:49.043Z,132.77
2023-11-07T00:33:15.564Z,138.48
2023-11-07T00:35:42.524Z,144.60
2023-11-07T00:38:08.891Z,142.40
2023-11-07T00:40:35.283Z,122.43
2023-11-07T00:43:01.778Z,120.07
2023-11-07T00:45:28.184Z,133.02
2023-11-07T00:47:54.637Z,139.85
2023-11-07T00:50:21.618Z,135.93
2023-11-07T00:52:48.199Z,121.05
2023-11-07T00:55:14.614Z,124.30
2023-11-07T00:57:40.966Z,133.50
2023-11-07T01:00:07.744Z,135.97
2023-11-07T01:02:34.468Z,125.03
2023-11-07T01:05:00.982Z,122.15
2023-11-07T01:07:27.466Z,126.05
2023-11-07T01:09:53.825Z,131.15
2023-11-07T01:12:20.165Z,165.45
2023-11-07T01:14:46.601Z,158.05
2023-11-07T01:17:13.017Z,158.05
2023-11-07T01:19:39.380Z,148.53
2023-11-07T01:22:05.798Z,137.47
2023-11-07T01:24:32.668Z,162.40
2023-11-07T01:26:59.087Z,122.32
2023-11-07T01:29:25.484Z,102.53
2023-11-07T01:31:51.826Z,111.53
2023-11-07T01:34:18.368Z,108.40
2023-11-07T01:36:44.795Z,97.85
2023-11-07T01:39:11.213Z,95.60
2023-11-07T01:41:37.814Z,94.85
2023-11-07T01:44:04.204Z,97.20
2023-11-07T01:46:30.574Z,95.00
2023-11-07T01:48:58.106Z,96.33
2023-11-07T01:51:25.862Z,95.93
2023-11-07T01:53:53.597Z,96.60
2023-11-07T01:56:20.436Z,92.57
2023-11-07T01:58:46.830Z,96.38
2023-11-07T02:01:13.286Z,95.78
2023-11-07T02:03:39.885Z,62.57
2023-11-07T02:06:07.665Z,87.28
2023-11-07T02:08:34.707Z,91.00
2023-11-07T02:11:01.360Z,92.13
2023-11-07T02:13:28.061Z,93.33
2023-11-07T02:15:57.307Z,90.95
2023-11-07T02:18:23.851Z,91.35
2023-11-07T02:20:50.321Z,90.68
2023-11-07T02:23:26.701Z,90.43
2023-11-07T02:25:53.104Z,90.68
2023-11-07T02:28:19.471Z,85.07
2023-11-07T02:30:45.884Z,91.37
2023-11-07T02:33:12.303Z,90.55
2023-11-07T02:35:39.479Z,91.05
2023-11-07T02:38:05.971Z,89.30
2023-11-07T02:40:32.387Z,64.95
2023-11-07T02:43:00.894Z,58.92
2023-11-07T02:45:27.240Z,74.32
2023-11-07T02:47:53.775Z,78.43
2023-11-07T02:50:20.244Z,82.45
2023-11-07T02:52:46.658Z,84.78
2023-11-07T02:55:13.182Z,88.65
2023-11-07T02:57:39.589Z,89.90
2023-11-07T03:00:06.261Z,89.63
2023-11-07T03:02:35.757Z,93.25
2023-11-07T03:05:02.203Z,90.45
2023-11-07T03:07:28.560Z,94.15
2023-11-07T03:09:54.889Z,90.60
2023-11-07T03:12:21.286Z,91.97
2023-11-07T03:14:47.664Z,90.50
2023-11-07T03:17:14.068Z,91.35
2023-11-07T03:19:40.438Z,90.43
2023-11-07T03:22:06.945Z,92.13
2023-11-07T03:24:34.074Z,91.03
2023-11-07T03:27:00.641Z,90.28
2023-11-07T03:29:27.062Z,94.80
2023-11-07T03:31:54.909Z,94.00
2023-11-07T03:34:22.374Z,92.03
2023-11-07T03:36:49.278Z,91.43
2023-11-07T03:39:16.679Z,90.63
2023-11-07T03:41:43.163Z,90.63
2023-11-07T03:44:09.630Z,93.80
2023-11-07T03:46:36.008Z,92.28
2023-11-07T03:49:02.439Z,91.82
2023-11-07T03:51:29.353Z,90.03
2023-11-07T03:53:55.818Z,93.47
2023-11-07T03:56:22.285Z,93.03
2023-11-07T03:58:48.622Z,93.75
2023-11-07T04:01:14.977Z,83.68
2023-11-07T04:03:41.393Z,78.10
2023-11-07T04:06:08.158Z,82.65
2023-11-07T04:08:35.609Z,81.55
2023-11-07T04:11:02.712Z,83.07
2023-11-07T04:13:29.172Z,85.45
2023-11-07T04:15:58.425Z,87.20
2023-11-07T04:18:25.109Z,86.93
2023-11-07T04:20:51.731Z,86.05
2023-11-07T04:23:18.126Z,83.23
2023-11-07T04:25:44.616Z,88.27
2023-11-07T04:28:11.080Z,89.70
2023-11-07T04:30:37.760Z,84.88
2023-11-07T04:33:04.356Z,85.90
2023-11-07T04:35:30.783Z,84.32
2023-11-07T04:37:57.112Z,85.30
2023-11-07T04:40:23.442Z,88.38
2023-11-07T04:42:51.638Z,87.20
2023-11-07T04:45:21.412Z,87.93
2023-11-07T04:47:50.198Z,89.15
2023-11-07T04:50:17.956Z,86.65
2023-11-07T04:52:44.723Z,87.82
2023-11-07T04:55:12.963Z,86.50
2023-11-07T04:57:39.798Z,88.05
2023-11-07T05:00:07.026Z,87.15
2023-11-07T05:02:33.510Z,77.00
2023-11-07T05:04:59.895Z,87.32
2023-11-07T05:07:26.424Z,86.85
2023-11-07T05:09:56.268Z,88.03
2023-11-07T05:12:22.677Z,82.55
2023-11-07T05:14:49.032Z,78.75
2023-11-07T05:17:15.370Z,81.53
2023-11-07T05:19:41.748Z,86.28
2023-11-07T05:22:08.061Z,85.88
2023-11-07T05:24:34.395Z,83.00
2023-11-07T05:27:00.782Z,82.63
2023-11-07T05:29:27.386Z,83.80
2023-11-07T05:31:53.769Z,83.88
2023-11-07T05:34:20.120Z,85.15
2023-11-07T05:36:47.734Z,84.57
2023-11-07T05:39:16.931Z,84.40
2023-11-07T05:41:44.084Z,84.40
2023-11-07T05:44:10.462Z,86.10
2023-11-07T05:46:37.420Z,87.27
2023-11-07T05:49:03.984Z,86.43
2023-11-07T05:51:30.431Z,85.03
2023-11-07T05:53:56.845Z,87.05
2023-11-07T05:56:23.215Z,85.70
2023-11-07T05:58:50.736Z,86.75
2023-11-07T06:01:17.367Z,84.07
2023-11-07T06:03:43.887Z,83.88
2023-11-07T06:06:10.485Z,83.43
2023-11-07T06:08:37.045Z,85.20
2023-11-07T06:11:03.563Z,85.32
2023-11-07T06:13:30.290Z,87.28
2023-11-07T06:15:56.716Z,84.50
2023-11-07T06:18:23.347Z,82.43
2023-11-07T06:20:50.818Z,85.30
2023-11-07T06:23:17.222Z,80.28
2023-11-07T06:25:43.665Z,85.57
2023-11-07T06:28:09.994Z,84.72
2023-11-07T06:30:38.674Z,83.15
2023-11-07T06:33:05.174Z,84.13
2023-11-07T06:35:31.619Z,84.95
2023-11-07T06:37:57.985Z,70.82
2023-11-07T06:40:24.809Z,81.85
2023-11-07T06:42:52.794Z,83.87
2023-11-07T06:45:19.405Z,83.55
2023-11-07T06:47:47.019Z,83.03
2023-11-07T06:50:14.830Z,85.90
2023-11-07T06:52:42.571Z,81.13
2023-11-07T06:55:13.076Z,81.50
2023-11-07T06:57:39.596Z,81.55
2023-11-07T07:00:06.885Z,82.22
2023-11-07T07:02:34.113Z,80.53
2023-11-07T07:05:01.104Z,80.22
2023-11-07T07:07:27.573Z,81.10
2023-11-07T07:09:53.974Z,83.10
2023-11-07T07:12:22.148Z,80.60
2023-11-07T07:14:49.676Z,82.47
2023-11-07T07:17:20.340Z,82.32
2023-11-07T07:19:46.959Z,62.60
2023-11-07T07:22:13.644Z,76.07
2023-11-07T07:24:41.035Z,78.17
2023-11-07T07:27:09.651Z,80.75
2023-11-07T07:29:38.682Z,82.32
2023-11-07T07:32:05.173Z,81.00
2023-11-07T07:34:33.359Z,82.25
2023-11-07T07:36:59.834Z,78.10
2023-11-07T07:39:29.655Z,76.90
2023-11-07T07:41:57.168Z,80.05
2023-11-07T07:44:26.794Z,74.07
2023-11-07T07:46:57.904Z,75.03
2023-11-07T07:49:24.551Z,76.03
2023-11-07T07:51:53.158Z,72.03
2023-11-07T07:54:36.337Z,74.05
2023-11-07T07:57:10.457Z,75.30
2023-11-07T07:59:41.976Z,73.22
2023-11-07T08:02:08.664Z,72.20
2023-11-07T08:04:35.276Z,49.80
2023-11-07T08:07:01.722Z,50.35
2023-11-07T08:09:30.137Z,66.43
2023-11-07T08:12:01.367Z,69.15
2023-11-07T08:14:29.585Z,71.77
2023-11-07T08:16:55.895Z,74.43
2023-11-07T08:19:23.663Z,71.65
2023-11-07T08:21:50.126Z,70.25
2023-11-07T08:24:16.877Z,72.10
2023-11-07T08:26:43.383Z,72.65
2023-11-07T08:29:09.780Z,73.30
2023-11-07T08:31:36.802Z,74.77
2023-11-07T08:34:05.651Z,75.20
2023-11-07T08:36:32.546Z,71.75
2023-11-07T08:38:58.885Z,70.22
2023-11-07T08:41:26.774Z,74.43
2023-11-07T08:43:53.202Z,72.65
2023-11-07T08:46:20.254Z,73.45
2023-11-07T08:48:47.017Z,72.38
2023-11-07T08:51:16.833Z,65.50
2023-11-07T08:53:43.803Z,72.03
2023-11-07T08:56:10.391Z,70.20
2023-11-07T08:58:36.749Z,67.87
2023-11-07T09:01:03.095Z,70.40
2023-11-07T09:03:30.167Z,71.97
2023-11-07T09:05:56.594Z,70.78
2023-11-07T09:08:22.997Z,67.68
2023-11-07T09:10:49.670Z,68.90
2023-11-07T09:13:16.092Z,69.72
2023-11-07T09:15:45.569Z,72.15
2023-11-07T09:18:12.124Z,72.72
2023-11-07T09:20:43.371Z,69.10
2023-11-07T09:23:10.055Z,72.10
2023-11-07T09:25:36.572Z,75.00
2023-11-07T09:28:03.240Z,73.63
2023-11-07T09:30:29.673Z,71.93
2023-11-07T09:32:56.348Z,70.43
2023-11-07T09:35:24.640Z,71.60
2023-11-07T09:37:51.358Z,69.82
2023-11-07T09:40:23.462Z,66.18
2023-11-07T09:42:52.509Z,67.97
2023-11-07T09:45:22.595Z,62.63
2023-11-07T09:47:50.123Z,7.65
2023-11-07T09:50:18.179Z,23.48
2023-11-07T09:52:45.443Z,17.08
2023-11-07T09:55:15.977Z,21.88
2023-11-07T09:58:09.707Z,37.15
2023-11-07T10:00:44.840Z,45.72
2023-11-07T10:03:12.034Z,50.55
2023-11-07T10:05:40.528Z,52.03
2023-11-07T10:08:07.717Z,56.88
2023-11-07T10:10:35.435Z,47.33
2023-11-07T10:13:09.033Z,55.85
2023-11-07T10:15:35.569Z,55.95
2023-11-07T10:18:07.514Z,53.88
2023-11-07T10:20:35.206Z,58.30
2023-11-07T10:23:02.303Z,58.35
2023-11-07T10:25:35.676Z,60.63
2023-11-07T10:28:02.671Z,62.20
2023-11-07T10:30:35.538Z,60.20
2023-11-07T10:33:02.403Z,63.97
2023-11-07T10:35:28.953Z,60.03
2023-11-07T10:37:55.326Z,60.15
2023-11-07T10:40:21.840Z,59.13
2023-11-07T10:42:49.090Z,59.22
2023-11-07T10:45:16.855Z,60.03
2023-11-07T10:47:44.317Z,29.35
2023-11-07T10:50:16.712Z,61.00
2023-11-07T10:52:44.521Z,59.25
2023-11-07T10:55:10.881Z,55.73
2023-11-07T10:57:39.360Z,54.03
2023-11-07T11:00:13.651Z,53.00
2023-11-07T11:02:47.015Z,57.28
2023-11-07T11:05:16.949Z,57.22
2023-11-07T11:07:48.884Z,56.92
2023-11-07T11:10:16.580Z,58.50
2023-11-07T11:12:44.206Z,60.42
2023-11-07T11:15:10.914Z,56.60
2023-11-07T11:17:42.017Z,55.70
2023-11-07T11:20:17.563Z,41.63
2023-11-07T11:22:49.838Z,49.22
2023-11-07T11:25:32.385Z,80.30
2023-11-07T11:28:02.528Z,79.13
2023-11-07T11:30:32.977Z,78.78
2023-11-07T11:33:06.587Z,76.65
2023-11-07T11:35:34.873Z,74.37
2023-11-07T11:38:13.088Z,72.80
2023-11-07T11:40:52.641Z,90.93
2023-11-07T11:43:19.753Z,91.07
2023-11-07T11:45:47.355Z,94.63
2023-11-07T11:48:14.351Z,118.80
2023-11-07T11:50:40.970Z,75.53
2023-11-07T11:53:10.164Z,108.67
2023-11-07T11:55:56.892Z,142.70
2023-11-07T11:58:26.996Z,110.65
2023-11-07T12:00:54.088Z,117.72
2023-11-07T12:03:21.053Z,130.18
2023-11-07T12:06:05.231Z,140.45
2023-11-07T12:08:34.736Z,139.63
2023-11-07T12:11:03.241Z,142.57
2023-11-07T12:13:33.776Z,157.95
2023-11-07T12:16:16.141Z,158.93
2023-11-07T12:18:43.695Z,137.45
2023-11-07T12:21:10.417Z,132.32
2023-11-07T12:23:37.277Z,131.95
2023-11-07T12:26:04.410Z,129.35
2023-11-07T12:28:30.792Z,132.70
2023-11-07T12:30:57.317Z,138.02
2023-11-07T12:33:23.794Z,134.68
2023-11-07T12:35:55.777Z,140.50
2023-11-07T12:38:22.519Z,143.30
2023-11-07T12:40:49.266Z,144.25
2023-11-07T12:43:16.621Z,144.80
2023-11-07T12:45:43.859Z,151.82
2023-11-07T12:48:11.314Z,158.20
2023-11-07T12:50:43.528Z,188.98
2023-11-07T12:53:10.367Z,218.52
2023-11-07T12:55:38.826Z,183.30
2023-11-07T12:58:06.239Z,166.23
2023-11-07T13:00:52.944Z,186.32
2023-11-07T13:03:26.944Z,174.53
2023-11-07T13:06:04.214Z,163.77
2023-11-07T13:08:31.774Z,156.75
2023-11-07T13:11:27.773Z,153.45
2023-11-07T13:13:54.100Z,124.22
2023-11-07T13:16:20.577Z,121.57
2023-11-07T13:18:48.481Z,135.38
2023-11-07T13:21:15.293Z,134.25
2023-11-07T13:23:41.772Z,140.43
2023-11-07T13:26:08.957Z,176.60
2023-11-07T13:28:39.159Z,179.40
2023-11-07T13:31:05.970Z,226.65
2023-11-07T13:33:32.584Z,226.63
2023-11-07T13:36:00.133Z,194.43
2023-11-07T13:38:26.618Z,175.10
2023-11-07T13:40:52.992Z,149.83
2023-11-07T13:43:19.439Z,137.57
2023-11-07T13:45:48.929Z,128.43
2023-11-07T13:48:15.470Z,123.40
2023-11-07T13:50:42.011Z,124.82
2023-11-07T13:53:08.927Z,122.47
2023-11-07T13:55:35.289Z,116.10
2023-11-07T13:58:01.664Z,110.15
2023-11-07T14:00:28.920Z,104.95
2023-11-07T14:02:55.761Z,102.90
2023-11-07T14:05:22.816Z,97.40
2023-11-07T14:07:52.876Z,96.22
2023-11-07T14:10:22.784Z,97.97
2023-11-07T14:12:49.832Z,114.38
2023-11-07T14:15:20.266Z,121.22
2023-11-07T14:17:47.460Z,128.88
2023-11-07T14:20:20.188Z,135.02
2023-11-07T14:22:46.607Z,139.05
2023-11-07T14:25:13.115Z,137.80
2023-11-07T14:27:40.205Z,143.88
2023-11-07T14:30:21.568Z,146.38
2023-11-07T14:32:56.009Z,142.37
2023-11-07T14:35:23.676Z,144.32
2023-11-07T14:37:51.439Z,139.90
2023-11-07T14:40:17.803Z,145.98
2023-11-07T14:42:46.317Z,148.23
2023-11-07T14:45:14.006Z,164.43
2023-11-07T14:47:44.125Z,145.43
2023-11-07T14:50:14.271Z,132.30
2023-11-07T14:52:43.927Z,130.60
2023-11-07T14:55:13.693Z,108.43
2023-11-07T14:57:50.118Z,123.55
2023-11-07T15:00:31.653Z,130.48
2023-11-07T15:02:59.080Z,137.30
2023-11-07T15:05:29.285Z,147.43
2023-11-07T15:07:56.146Z,150.77
2023-11-07T15:10:24.730Z,181.68
2023-11-07T15:12:52.907Z,162.13
2023-11-07T15:15:20.577Z,222.52
2023-11-07T15:17:47.760Z,205.80
2023-11-07T15:20:14.384Z,222.97
2023-11-07T15:22:41.131Z,164.07
2023-11-07T15:25:12.831Z,155.52
2023-11-07T15:27:48.218Z,157.70
2023-11-07T15:30:17.242Z,184.17
2023-11-07T15:32:50.053Z,208.35
2023-11-07T15:35:16.703Z,193.60
2023-11-07T15:37:43.475Z,178.80
2023-11-07T15:40:14.302Z,167.80
2023-11-07T15:42:41.034Z,166.45
2023-11-07T15:45:10.647Z,177.73
2023-11-07T15:47:41.213Z,187.83
2023-11-07T15:50:08.825Z,219.60
2023-11-07T15:52:36.207Z,240.15
2023-11-07T15:55:05.101Z,263.20
2023-11-07T15:57:31.737Z,255.48
2023-11-07T15:59:58.209Z,261.60
2023-11-07T16:02:27.893Z,282.55
2023-11-07T16:04:54.277Z,149.05
2023-11-07T16:07:20.858Z,158.20
2023-11-07T16:09:47.205Z,140.25
2023-11-07T16:12:13.752Z,141.00
2023-11-07T16:14:40.277Z,116.78
2023-11-07T16:17:06.648Z,134.63
2023-11-07T16:19:33.631Z,142.60
2023-11-07T16:22:00.072Z,191.48
2023-11-07T16:24:26.454Z,170.50
2023-11-07T16:26:52.867Z,173.35
2023-11-07T16:29:21.252Z,177.57
2023-11-07T16:31:47.855Z,185.23
2023-11-07T16:34:15.180Z,403.05
2023-11-07T16:36:44.430Z,378.30
2023-11-07T16:39:10.859Z,385.23
2023-11-07T16:42:05.049Z,356.23
2023-11-07T16:44:31.616Z,247.85
2023-11-07T16:46:57.964Z,230.43
2023-11-07T16:49:24.380Z,205.20
2023-11-07T16:51:50.813Z,234.98
2023-11-07T16:54:17.263Z,228.88
2023-11-07T16:56:43.714Z,224.95
2023-11-07T16:59:10.192Z,224.75
2023-11-07T17:01:36.596Z,233.65
2023-11-07T17:04:03.157Z,241.15
2023-11-07T17:06:29.741Z,296.67
2023-11-07T17:08:56.220Z,142.07
2023-11-07T17:11:23.295Z,136.75
2023-11-07T17:13:49.709Z,137.00
2023-11-07T17:16:16.129Z,142.52
2023-11-07T17:18:44.809Z,134.27
2023-11-07T17:21:12.490Z,137.30
2023-11-07T17:23:38.937Z,135.52
2023-11-07T17:26:06.164Z,144.90
2023-11-07T17:28:32.538Z,140.85
2023-11-07T17:30:58.848Z,145.30
2023-11-07T17:33:25.346Z,177.23
2023-11-07T17:35:51.904Z,160.63
2023-11-07T17:38:18.382Z,174.13
2023-11-07T17:40:45.148Z,245.53
2023-11-07T17:43:12.600Z,74.47
2023-11-07T17:45:39.246Z,87.28
2023-11-07T17:48:05.887Z,70.30
2023-11-07T17:50:32.482Z,80.00
2023-11-07T17:52:59.852Z,86.32
2023-11-07T17:55:30.446Z,128.07
2023-11-07T17:57:56.869Z,65.50
2023-11-07T18:00:27.108Z,109.40
2023-11-07T18:02:53.607Z,91.10
2023-11-07T18:05:20.006Z,111.85
2023-11-07T18:07:46.398Z,122.20
2023-11-07T18:10:12.859Z,117.53
2023-11-07T18:12:39.593Z,117.43
2023-11-07T18:15:06.273Z,126.27
2023-11-07T18:17:33.404Z,43.28
2023-11-07T18:19:59.834Z,112.88
2023-11-07T18:22:26.173Z,73.75
2023-11-07T18:24:52.739Z,43.72
2023-11-07T18:27:23.966Z,54.03
2023-11-07T18:29:50.455Z,110.10
2023-11-07T18:32:20.883Z,101.00
2023-11-07T18:34:47.287Z,113.37
2023-11-07T18:37:13.745Z,112.80
2023-11-07T18:39:40.795Z,22.23
2023-11-07T18:42:08.152Z,129.93
2023-11-07T18:44:37.704Z,93.43
2023-11-07T18:47:06.600Z,124.75
2023-11-07T18:49:33.372Z,136.30
2023-11-07T18:52:00.048Z,142.68
2023-11-07T18:54:30.848Z,147.57
2023-11-07T18:57:00.440Z,72.85
2023-11-07T18:59:37.874Z,67.15
2023-11-07T19:02:17.383Z,159.80
2023-11-07T19:05:01.424Z,104.95
2023-11-07T19:07:27.801Z,9.80
2023-11-07T19:09:54.174Z,7.18
2023-11-07T19:12:21.157Z,6.28
2023-11-07T19:15:04.720Z,4.97
2023-11-07T19:17:31.139Z,7.63
2023-11-07T19:19:57.500Z,5.68
2023-11-07T19:22:23.989Z,6.10
2023-11-07T19:24:50.341Z,5.80
2023-11-07T19:27:17.628Z,6.13
2023-11-07T19:29:44.516Z,5.20
2023-11-07T19:32:10.854Z,5.78
2023-11-07T19:34:37.293Z,6.65
2023-11-07T19:37:03.825Z,8.27
2023-11-07T19:39:31.900Z,6.10
2023-11-07T19:42:03.257Z,7.68
2023-11-07T19:44:29.775Z,6.77
2023-11-07T19:46:56.200Z,8.57
2023-11-07T19:49:26.728Z,19.55
2023-11-07T19:51:53.292Z,32.70
2023-11-07T19:54:19.635Z,18.00
2023-11-07T19:56:46.203Z,29.10
2023-11-07T19:59:13.290Z,41.38
2023-11-07T20:01:39.770Z,57.92
2023-11-07T20:04:06.570Z,73.95
2023-11-07T20:06:33.126Z,73.32
2023-11-07T20:08:59.497Z,77.72
2023-11-07T20:11:26.212Z,98.63
2023-11-07T20:13:52.821Z,117.53
2023-11-07T20:16:19.561Z,150.90
2023-11-07T20:18:46.093Z,146.10
2023-11-07T20:21:13.664Z,147.15
2023-11-07T20:23:40.664Z,299.90
2023-11-07T20:26:06.997Z,239.02
2023-11-07T20:28:33.442Z,231.18
2023-11-07T20:30:59.806Z,219.23
2023-11-07T20:33:36.765Z,234.20
2023-11-07T20:36:08.182Z,200.60
2023-11-07T20:38:37.613Z,204.27
2023-11-07T20:41:04.182Z,227.32
2023-11-07T20:43:31.297Z,259.35
2023-11-07T20:45:57.689Z,257.20
2023-11-07T20:48:24.106Z,262.05
2023-11-07T20:50:51.566Z,262.33
2023-11-07T20:53:17.936Z,263.08
2023-11-07T20:55:44.333Z,257.95
2023-11-07T20:58:10.731Z,263.50
2023-11-07T21:00:37.173Z,269.83
2023-11-07T21:03:07.341Z,257.25
2023-11-07T21:05:33.804Z,247.43
2023-11-07T21:08:02.572Z,263.35
2023-11-07T21:10:28.927Z,200.23
2023-11-07T21:12:55.932Z,112.00
2023-11-07T21:15:22.412Z,333.23
2023-11-07T21:17:48.817Z,297.40
2023-11-07T21:20:15.920Z,261.65
2023-11-07T21:22:42.302Z,293.75
2023-11-07T21:25:10.285Z,6.65
2023-11-07T21:27:36.718Z,6.40
2023-11-07T21:30:06.616Z,4.57
2023-11-07T21:32:33.583Z,7.63
2023-11-07T21:35:00.286Z,5.93
2023-11-07T21:37:26.955Z,8.68
2023-11-07T21:39:53.364Z,5.57
2023-11-07T21:42:19.945Z,7.45
2023-11-07T21:44:46.434Z,6.25
2023-11-07T21:47:16.012Z,6.57
2023-11-07T21:49:43.430Z,8.30
2023-11-07T21:52:09.903Z,6.60
2023-11-07T21:54:36.301Z,6.68
2023-11-07T21:57:03.870Z,6.45
2023-11-07T21:59:30.959Z,10.63
2023-11-07T22:01:57.326Z,26.02
2023-11-07T22:04:24.565Z,31.15
2023-11-07T22:06:51.275Z,28.50
2023-11-07T22:09:17.993Z,23.27
2023-11-07T22:11:47.505Z,27.80
2023-11-07T22:14:15.687Z,19.67
2023-11-07T22:16:44.948Z,16.48
2023-11-07T22:19:11.358Z,9.93
2023-11-07T22:21:37.974Z,14.52
2023-11-07T22:24:04.623Z,10.95
2023-11-07T22:26:38.322Z,7.95
2023-11-07T22:29:06.577Z,10.63
2023-11-07T22:31:33.306Z,7.35
2023-11-07T22:34:01.580Z,8.65
2023-11-07T22:36:28.062Z,8.53
2023-11-07T22:38:54.442Z,7.68
2023-11-07T22:41:20.798Z,9.35
2023-11-07T22:43:47.133Z,8.98
2023-11-07T22:46:13.518Z,8.13
2023-11-07T22:48:39.928Z,8.43
2023-11-07T22:51:06.457Z,7.80
2023-11-07T22:53:32.823Z,7.60
2023-11-07T22:56:01.246Z,7.30
2023-11-07T22:58:27.789Z,8.88
2023-11-07T23:00:56.967Z,7.72
2023-11-07T23:03:26.694Z,8.48
2023-11-07T23:05:53.590Z,8.23
2023-11-07T23:08:19.990Z,9.07
2023-11-07T23:10:46.375Z,8.23
2023-11-07T23:13:13.015Z,8.73
2023-11-07T23:15:39.756Z,9.20
2023-11-07T23:18:06.736Z,8.57
2023-11-07T23:20:35.012Z,11.87
2023-11-07T23:23:01.394Z,9.80
2023-11-07T23:25:27.920Z,8.85
2023-11-07T23:27:54.328Z,11.85
2023-11-07T23:30:20.720Z,19.05
2023-11-07T23:32:47.190Z,16.10
2023-11-07T23:35:13.978Z,6.88
2023-11-07T23:37:40.483Z,10.03
2023-11-07T23:40:13.385Z,18.27
2023-11-07T23:42:41.916Z,11.93
2023-11-07T23:45:09.118Z,24.23
2023-11-07T23:47:36.533Z,24.70
2023-11-07T23:50:03.618Z,30.00
2023-11-07T23:52:29.984Z,28.13
2023-11-07T23:54:56.405Z,19.70
2023-11-07T23:57:23.556Z,27.30
2023-11-07T23:59:49.949Z,30.75
